createdAt,value
2022-12-13T00:01:54.460Z,17.53
2022-12-13T00:04:22.905Z,18.10
2022-12-13T00:06:50.726Z,19.67
2022-12-13T00:09:19.037Z,20.83
2022-12-13T00:11:47.664Z,18.17
2022-12-13T00:14:14.754Z,20.20
2022-12-13T00:16:45.582Z,22.10
2022-12-13T00:19:12.422Z,18.47
2022-12-13T00:21:39.134Z,16.83
2022-12-13T00:24:07.252Z,18.40
2022-12-13T00:26:35.063Z,18.47
2022-12-13T00:29:04.408Z,20.57
2022-12-13T00:34:21.680Z,20.90
2022-12-13T00:36:48.563Z,18.10
2022-12-13T00:39:16.511Z,18.73
2022-12-13T00:41:44.955Z,19.37
2022-12-13T00:44:12.765Z,19.57
2022-12-13T00:46:40.872Z,23.30
2022-12-13T00:49:09.608Z,24.13
2022-12-13T00:51:36.455Z,21.87
2022-12-13T00:54:04.062Z,20.93
2022-12-13T00:56:32.435Z,21.17
2022-12-13T00:58:59.530Z,21.13
2022-12-13T01:01:29.075Z,18.63
2022-12-13T01:03:57.814Z,23.40
2022-12-13T01:06:37.542Z,18.50
2022-12-13T01:09:07.261Z,17.93
2022-12-13T01:11:34.138Z,20.40
2022-12-13T01:14:01.002Z,19.30
2022-12-13T01:16:27.973Z,17.67
2022-12-13T01:18:56.506Z,19.23
2022-12-13T01:21:23.212Z,19.73
2022-12-13T01:23:50.289Z,19.87
2022-12-13T01:26:19.827Z,21.10
2022-12-13T01:28:47.611Z,22.87
2022-12-13T01:31:18.010Z,22.37
2022-12-13T01:33:45.051Z,18.27
2022-12-13T01:36:15.519Z,17.57
2022-12-13T01:38:42.642Z,17.80
2022-12-13T01:41:17.353Z,20.77
2022-12-13T01:43:47.883Z,17.20
2022-12-13T01:46:17.720Z,17.47
2022-12-13T01:49:02.168Z,16.93
2022-12-13T01:51:52.294Z,18.70
2022-12-13T01:54:24.699Z,14.53
2022-12-13T01:57:05.359Z,15.70
2022-12-13T01:59:34.666Z,15.07
2022-12-13T02:02:01.888Z,17.70
2022-12-13T02:04:45.827Z,16.80
2022-12-13T02:07:23.286Z,14.10
2022-12-13T02:09:57.458Z,16.07
2022-12-13T02:12:30.670Z,14.17
2022-12-13T02:15:01.205Z,14.07
2022-12-13T02:17:53.258Z,13.10
2022-12-13T02:20:45.814Z,12.67
2022-12-13T02:23:48.182Z,13.37
2022-12-13T02:26:14.842Z,13.87
2022-12-13T02:28:51.077Z,13.17
2022-12-13T02:31:31.219Z,16.07
2022-12-13T02:34:09.785Z,15.43
2022-12-13T02:36:57.646Z,16.53
2022-12-13T02:39:39.671Z,15.37
2022-12-13T02:42:22.308Z,12.07
2022-12-13T02:45:06.367Z,15.27
2022-12-13T02:47:33.923Z,15.33
2022-12-13T02:50:06.164Z,14.00
2022-12-13T02:52:33.593Z,15.37
2022-12-13T02:55:00.313Z,16.50
2022-12-13T02:57:34.885Z,19.83
2022-12-13T03:00:24.732Z,17.33
2022-12-13T03:03:06.595Z,17.67
2022-12-13T03:06:07.521Z,16.00
2022-12-13T03:08:51.720Z,16.97
2022-12-13T03:11:20.066Z,16.57
2022-12-13T03:13:56.440Z,19.17
2022-12-13T03:16:23.452Z,18.70
2022-12-13T03:18:53.209Z,17.03
2022-12-13T03:21:22.889Z,18.70
2022-12-13T03:23:49.844Z,19.07
2022-12-13T03:26:27.126Z,18.03
2022-12-13T03:28:54.571Z,16.40
2022-12-13T03:31:21.446Z,18.93
2022-12-13T03:33:48.525Z,19.07
2022-12-13T03:36:16.420Z,18.67
2022-12-13T03:38:43.364Z,21.27
2022-12-13T03:41:14.071Z,22.60
2022-12-13T03:43:41.636Z,23.00
2022-12-13T03:46:09.119Z,21.93
2022-12-13T03:48:35.984Z,20.10
2022-12-13T03:51:03.323Z,20.07
2022-12-13T03:53:33.176Z,20.90
2022-12-13T03:56:03.352Z,19.50
2022-12-13T03:58:36.616Z,20.67
2022-12-13T04:01:16.738Z,34.90
2022-12-13T04:03:46.914Z,34.07
2022-12-13T04:06:22.502Z,24.30
2022-12-13T04:08:51.868Z,21.17
2022-12-13T04:11:42.811Z,21.40
2022-12-13T04:14:10.849Z,20.23
2022-12-13T04:16:37.687Z,20.37
2022-12-13T04:19:04.594Z,18.73
2022-12-13T04:21:31.232Z,20.13
2022-12-13T04:24:01.214Z,18.47
2022-12-13T04:26:28.794Z,18.77
2022-12-13T04:28:55.943Z,17.47
2022-12-13T04:31:23.246Z,18.43
2022-12-13T04:33:50.474Z,17.50
2022-12-13T04:36:31.962Z,15.50
2022-12-13T04:39:01.626Z,16.37
2022-12-13T04:41:34.303Z,15.60
2022-12-13T04:44:03.108Z,16.37
2022-12-13T04:46:30.310Z,15.50
2022-12-13T04:48:57.027Z,15.80
2022-12-13T04:51:24.186Z,14.80
2022-12-13T04:53:51.074Z,14.53
2022-12-13T04:56:18.248Z,20.77
2022-12-13T04:58:45.419Z,19.20
2022-12-13T05:01:13.370Z,17.80
2022-12-13T05:03:40.131Z,26.43
2022-12-13T05:06:26.357Z,26.80
2022-12-13T05:08:54.235Z,22.23
2022-12-13T05:11:23.005Z,21.00
2022-12-13T05:13:50.123Z,23.03
2022-12-13T05:16:17.066Z,24.13
2022-12-13T05:18:51.661Z,21.90
2022-12-13T05:21:18.760Z,21.17
2022-12-13T05:23:45.451Z,20.33
2022-12-13T05:26:12.358Z,18.47
2022-12-13T05:28:39.002Z,18.00
2022-12-13T05:31:22.681Z,20.63
2022-12-13T05:33:51.918Z,20.33
2022-12-13T05:36:19.538Z,20.17
2022-12-13T05:38:46.206Z,22.80
2022-12-13T05:41:19.360Z,22.30
2022-12-13T05:43:46.428Z,20.77
2022-12-13T05:46:14.107Z,22.03
2022-12-13T05:48:41.439Z,18.43
2022-12-13T05:51:11.646Z,18.20
2022-12-13T05:53:42.574Z,20.43
2022-12-13T05:56:10.982Z,17.83
2022-12-13T05:58:40.565Z,20.30
2022-12-13T06:01:09.852Z,19.40
2022-12-13T06:03:36.730Z,19.67
2022-12-13T06:06:05.425Z,17.13
2022-12-13T06:08:32.930Z,16.50
2022-12-13T06:11:10.953Z,18.07
2022-12-13T06:13:44.341Z,18.57
2022-12-13T06:16:22.221Z,16.23
2022-12-13T06:18:59.053Z,16.20
2022-12-13T06:21:40.652Z,14.70
2022-12-13T06:24:17.193Z,14.93
2022-12-13T06:26:45.397Z,17.57
2022-12-13T06:29:23.552Z,15.40
2022-12-13T06:31:54.092Z,18.93
2022-12-13T06:34:20.776Z,19.73
2022-12-13T06:36:47.705Z,18.27
2022-12-13T06:39:15.726Z,17.97
2022-12-13T06:41:42.599Z,18.10
2022-12-13T06:44:09.676Z,17.43
2022-12-13T06:46:36.648Z,20.07
2022-12-13T06:49:07.787Z,17.07
2022-12-13T06:51:34.931Z,17.67
2022-12-13T06:54:02.657Z,17.70
2022-12-13T06:56:31.021Z,16.73
2022-12-13T06:59:01.107Z,13.47
2022-12-13T07:01:37.593Z,15.57
2022-12-13T07:04:29.931Z,13.60
2022-12-13T07:06:53.392Z,14.37
2022-12-13T07:09:20.179Z,15.93
2022-12-13T07:11:51.977Z,15.00
2022-12-13T07:14:19.734Z,15.00
2022-12-13T07:16:46.655Z,13.67
2022-12-13T07:19:23.431Z,13.70
2022-12-13T07:21:51.707Z,13.20
2022-12-13T07:24:18.776Z,11.87
2022-12-13T07:26:45.553Z,13.20
2022-12-13T07:29:12.237Z,12.97
2022-12-13T07:31:38.973Z,12.63
2022-12-13T07:34:05.768Z,14.13
2022-12-13T07:36:32.460Z,13.43
2022-12-13T07:38:59.333Z,13.43
2022-12-13T07:41:27.347Z,15.10
2022-12-13T07:43:55.996Z,14.17
2022-12-13T07:46:32.546Z,16.47
2022-12-13T07:49:04.814Z,15.17
2022-12-13T07:51:34.826Z,17.50
2022-12-13T07:54:06.374Z,16.93
2022-12-13T07:56:35.187Z,16.10
2022-12-13T07:59:02.337Z,14.90
2022-12-13T08:01:34.401Z,14.53
2022-12-13T08:04:02.552Z,17.80
2022-12-13T08:06:30.165Z,16.63
2022-12-13T08:08:57.640Z,16.83
2022-12-13T08:11:24.460Z,16.50
2022-12-13T08:13:51.392Z,17.80
2022-12-13T08:16:28.329Z,14.77
2022-12-13T08:19:02.624Z,15.20
2022-12-13T08:24:29.120Z,18.30
2022-12-13T08:27:01.288Z,15.87
2022-12-13T08:29:34.439Z,14.53
2022-12-13T08:32:08.671Z,14.80
2022-12-13T08:34:35.403Z,13.43
2022-12-13T08:37:03.913Z,12.80
2022-12-13T08:39:35.295Z,16.60
2022-12-13T08:42:19.511Z,16.00
2022-12-13T08:44:48.500Z,16.87
2022-12-13T08:47:24.717Z,19.77
2022-12-13T08:49:54.737Z,16.47
2022-12-13T08:52:22.920Z,17.67
2022-12-13T08:54:49.745Z,18.80
2022-12-13T08:57:16.561Z,15.93
2022-12-13T08:59:45.043Z,17.33
2022-12-13T09:02:16.329Z,19.73
2022-12-13T09:04:43.830Z,22.93
2022-12-13T09:07:10.500Z,26.93
2022-12-13T09:09:37.711Z,26.73
2022-12-13T09:12:10.772Z,23.30
2022-12-13T09:14:52.575Z,17.93
2022-12-13T09:17:36.305Z,20.47
2022-12-13T09:20:10.039Z,20.37
2022-12-13T09:23:01.121Z,16.20
2022-12-13T09:25:29.468Z,18.47
2022-12-13T09:28:06.437Z,17.03
2022-12-13T09:30:33.329Z,17.00
2022-12-13T09:32:59.966Z,18.20
2022-12-13T09:35:47.062Z,17.50
2022-12-13T09:38:14.229Z,15.80
2022-12-13T09:40:43.031Z,20.57
2022-12-13T09:43:23.707Z,18.60
2022-12-13T09:46:04.141Z,18.33
2022-12-13T09:48:40.757Z,16.77
2022-12-13T09:51:17.072Z,18.07
2022-12-13T09:53:50.240Z,18.57
2022-12-13T09:56:22.683Z,19.07
2022-12-13T09:58:51.688Z,19.63
2022-12-13T10:01:22.534Z,19.03
2022-12-13T10:03:54.179Z,18.33
2022-12-13T10:06:24.103Z,17.73
2022-12-13T10:08:58.666Z,18.03
2022-12-13T10:11:32.927Z,17.43
2022-12-13T10:14:29.144Z,16.70
2022-12-13T10:17:00.192Z,16.30
2022-12-13T10:19:40.479Z,18.90
2022-12-13T10:22:25.423Z,18.47
2022-12-13T10:24:57.247Z,19.67
2022-12-13T10:27:33.142Z,17.67
2022-12-13T10:30:06.419Z,16.93
2022-12-13T10:32:42.517Z,14.63
2022-12-13T10:35:25.815Z,16.63
2022-12-13T10:37:53.163Z,16.37
2022-12-13T10:40:38.160Z,15.27
2022-12-13T10:43:27.559Z,16.67
2022-12-13T10:45:59.395Z,14.30
2022-12-13T10:48:49.817Z,14.83
2022-12-13T10:51:20.754Z,15.20
2022-12-13T10:54:00.575Z,12.20
2022-12-13T10:56:37.754Z,13.00
2022-12-13T10:59:22.674Z,13.90
2022-12-13T11:01:50.152Z,13.47
2022-12-13T11:04:27.108Z,13.73
2022-12-13T11:06:55.347Z,13.67
2022-12-13T11:09:25.516Z,13.97
2022-12-13T11:11:58.057Z,11.37
2022-12-13T11:14:31.869Z,13.07
2022-12-13T11:17:16.123Z,13.90
2022-12-13T11:19:52.260Z,12.77
2022-12-13T11:22:23.906Z,13.73
2022-12-13T11:24:52.924Z,11.83
2022-12-13T11:27:45.156Z,12.80
2022-12-13T11:30:37.375Z,15.53
2022-12-13T11:33:21.683Z,13.10
2022-12-13T11:36:26.487Z,14.07
2022-12-13T11:39:07.303Z,15.27
2022-12-13T11:41:39.400Z,18.93
2022-12-13T11:44:08.430Z,15.57
2022-12-13T11:47:05.043Z,12.97
2022-12-13T11:49:42.512Z,11.33
2022-12-13T11:52:30.774Z,10.17
2022-12-13T11:55:22.547Z,10.77
2022-12-13T11:58:04.965Z,10.63
2022-12-13T12:00:37.066Z,11.53
2022-12-13T12:03:17.947Z,10.67
2022-12-13T12:06:07.923Z,9.53
2022-12-13T12:08:44.963Z,10.03
2022-12-13T12:11:23.331Z,10.80
2022-12-13T12:14:12.213Z,11.23
2022-12-13T12:16:43.869Z,9.87
2022-12-13T12:19:14.766Z,10.43
2022-12-13T12:22:14.217Z,11.20
2022-12-13T12:25:00.978Z,10.87
2022-12-13T12:27:36.828Z,10.13
2022-12-13T12:30:31.300Z,10.00
2022-12-13T12:33:32.703Z,11.67
2022-12-13T12:36:19.428Z,9.93
2022-12-13T12:39:19.991Z,10.37
2022-12-13T12:42:50.255Z,8.00
2022-12-13T12:45:56.284Z,7.80
2022-12-13T12:49:02.154Z,8.50
2022-12-13T12:51:47.003Z,7.23
2022-12-13T12:54:32.225Z,6.87
2022-12-13T12:57:09.171Z,6.13
2022-12-13T12:59:50.489Z,6.57
2022-12-13T13:02:43.806Z,5.77
2022-12-13T13:05:22.303Z,6.93
2022-12-13T13:07:56.598Z,6.50
2022-12-13T13:10:26.969Z,7.50
2022-12-13T13:13:12.635Z,7.10
2022-12-13T13:15:42.021Z,6.47
2022-12-13T13:18:44.630Z,7.73
2022-12-13T13:21:23.246Z,7.00
2022-12-13T13:24:06.721Z,8.80
2022-12-13T13:26:36.592Z,7.37
2022-12-13T13:29:28.716Z,10.00
2022-12-13T13:32:28.406Z,7.20
2022-12-13T13:35:32.464Z,8.17
2022-12-13T13:38:05.157Z,8.27
2022-12-13T13:40:37.675Z,10.43
2022-12-13T13:43:10.519Z,8.37
2022-12-13T13:45:54.427Z,8.03
2022-12-13T13:48:45.960Z,8.57
2022-12-13T13:51:27.682Z,8.80
2022-12-13T13:54:00.460Z,7.77
2022-12-13T13:57:05.815Z,7.67
2022-12-13T14:00:14.988Z,7.77
2022-12-13T14:03:34.091Z,8.37
2022-12-13T14:06:04.549Z,7.53
2022-12-13T14:08:46.438Z,7.80
2022-12-13T14:11:52.063Z,7.17
2022-12-13T14:14:38.518Z,8.23
2022-12-13T14:17:55.892Z,8.03
2022-12-13T14:20:41.190Z,6.87
2022-12-13T14:23:46.564Z,7.13
2022-12-13T14:26:56.904Z,7.07
2022-12-13T14:29:48.821Z,8.83
2022-12-13T14:32:29.057Z,12.30
2022-12-13T14:34:57.792Z,18.53
2022-12-13T14:37:30.824Z,20.10
2022-12-13T14:40:00.003Z,35.73
2022-12-13T14:42:36.114Z,33.87
2022-12-13T14:45:22.895Z,25.20
2022-12-13T14:47:50.181Z,16.83
2022-12-13T14:50:18.337Z,15.40
2022-12-13T14:52:46.177Z,12.43
2022-12-13T14:56:01.446Z,12.93
2022-12-13T14:58:28.443Z,10.43
2022-12-13T15:00:57.793Z,10.87
2022-12-13T15:03:27.582Z,10.00
2022-12-13T15:06:00.469Z,9.73
2022-12-13T15:08:27.719Z,11.03
2022-12-13T15:10:57.383Z,9.53
2022-12-13T15:13:43.906Z,9.93
2022-12-13T15:16:28.986Z,8.70
2022-12-13T15:19:30.258Z,9.37
2022-12-13T15:22:07.271Z,8.57
2022-12-13T15:24:46.999Z,7.33
2022-12-13T15:27:19.225Z,7.20
2022-12-13T15:29:47.421Z,8.13
2022-12-13T15:32:23.173Z,7.23
2022-12-13T15:34:51.442Z,7.83
2022-12-13T15:37:32.974Z,6.77
2022-12-13T15:40:06.144Z,6.57
2022-12-13T15:42:36.470Z,8.10
2022-12-13T15:45:07.790Z,9.30
2022-12-13T15:47:34.628Z,10.60
2022-12-13T15:50:04.564Z,11.40
2022-12-13T15:52:36.131Z,10.93
2022-12-13T15:55:05.830Z,10.87
2022-12-13T15:57:49.147Z,12.23
2022-12-13T16:00:16.839Z,8.77
2022-12-13T16:02:51.974Z,9.53
2022-12-13T16:05:31.479Z,9.53
2022-12-13T16:08:13.538Z,10.27
2022-12-13T16:10:47.722Z,8.67
2022-12-13T16:13:26.122Z,12.40
2022-12-13T16:16:00.488Z,13.00
2022-12-13T16:18:51.371Z,16.00
2022-12-13T16:21:18.532Z,14.23
2022-12-13T16:23:48.392Z,16.07
2022-12-13T16:26:25.921Z,14.97
2022-12-13T16:28:55.109Z,13.63
2022-12-13T16:31:24.086Z,15.27
2022-12-13T16:33:51.623Z,15.30
2022-12-13T16:36:18.620Z,14.97
2022-12-13T16:38:45.752Z,13.93
2022-12-13T16:41:14.697Z,12.50
2022-12-13T16:43:54.231Z,13.40
2022-12-13T16:47:14.426Z,9.77
2022-12-13T16:49:19.612Z,14.13
2022-12-13T16:51:48.935Z,11.67
2022-12-13T16:54:22.534Z,12.33
2022-12-13T16:56:50.504Z,14.17
2022-12-13T16:59:20.036Z,14.40
2022-12-13T17:01:46.984Z,14.40
2022-12-13T17:04:19.997Z,12.93
2022-12-13T17:06:48.203Z,15.57
2022-12-13T17:09:14.830Z,14.37
2022-12-13T17:11:41.831Z,13.17
2022-12-13T17:14:08.619Z,13.97
2022-12-13T17:16:35.730Z,11.90
2022-12-13T17:19:02.478Z,12.73
2022-12-13T17:21:29.765Z,13.03
2022-12-13T17:23:59.428Z,13.47
2022-12-13T17:26:27.727Z,12.57
2022-12-13T17:28:54.681Z,11.37
2022-12-13T17:31:21.577Z,14.40
2022-12-13T17:33:48.530Z,10.90
2022-12-13T17:36:16.983Z,13.00
2022-12-13T17:38:45.678Z,17.60
2022-12-13T17:41:16.129Z,20.80
2022-12-13T17:43:43.734Z,20.90
2022-12-13T17:46:14.372Z,18.20
2022-12-13T17:48:42.323Z,17.40
2022-12-13T17:51:10.384Z,14.53
2022-12-13T17:53:39.560Z,15.47
2022-12-13T17:56:08.559Z,11.73
2022-12-13T17:58:35.773Z,13.67
2022-12-13T18:01:16.019Z,13.50
2022-12-13T18:03:43.164Z,12.20
2022-12-13T18:06:10.161Z,15.20
2022-12-13T18:08:38.857Z,14.23
2022-12-13T18:13:54.796Z,14.30
2022-12-13T18:16:23.782Z,16.03
2022-12-13T18:18:54.805Z,17.07
2022-12-13T18:21:23.483Z,16.20
2022-12-13T18:23:55.409Z,14.83
2022-12-13T18:26:24.154Z,14.70
2022-12-13T18:28:51.539Z,14.87
2022-12-13T18:31:21.847Z,11.90
2022-12-13T18:33:50.147Z,13.23
2022-12-13T18:36:18.132Z,13.27
2022-12-13T18:38:45.730Z,12.53
2022-12-13T18:41:17.746Z,12.47
2022-12-13T18:43:45.677Z,12.00
2022-12-13T18:46:13.874Z,13.87
2022-12-13T18:48:41.202Z,13.60
2022-12-13T18:51:09.666Z,14.63
2022-12-13T18:53:37.739Z,14.80
2022-12-13T18:56:18.771Z,13.07
2022-12-13T18:58:48.375Z,14.10
2022-12-13T19:01:16.707Z,12.30
2022-12-13T19:03:45.770Z,14.50
2022-12-13T19:06:21.298Z,14.03
2022-12-13T19:08:49.382Z,12.40
2022-12-13T19:11:16.439Z,13.40
2022-12-13T19:13:43.203Z,12.47
2022-12-13T19:16:12.230Z,13.03
2022-12-13T19:18:40.640Z,13.47
2022-12-13T19:21:09.925Z,14.90
2022-12-13T19:23:36.774Z,14.07
2022-12-13T19:26:07.644Z,14.57
2022-12-13T19:28:35.261Z,12.77
2022-12-13T19:31:06.559Z,14.43
2022-12-13T19:33:34.245Z,16.23
2022-12-13T19:36:02.029Z,13.40
2022-12-13T19:38:28.690Z,15.33
2022-12-13T19:40:55.587Z,13.33
2022-12-13T19:43:22.333Z,13.17
2022-12-13T19:45:49.644Z,13.87
2022-12-13T19:48:16.960Z,14.80
2022-12-13T19:50:44.300Z,15.27
2022-12-13T19:53:11.907Z,15.17
2022-12-13T19:55:45.518Z,19.50
2022-12-13T19:58:15.456Z,15.63
2022-12-13T20:00:42.182Z,14.20
2022-12-13T20:03:09.057Z,15.50
2022-12-13T20:05:36.273Z,13.97
2022-12-13T20:08:05.153Z,14.40
2022-12-13T20:10:36.836Z,13.33
2022-12-13T20:13:04.478Z,14.43
2022-12-13T20:15:31.326Z,16.30
2022-12-13T20:17:58.131Z,12.87
2022-12-13T20:20:40.929Z,13.73
2022-12-13T20:23:17.951Z,12.60
2022-12-13T20:25:47.060Z,14.73
2022-12-13T20:28:16.395Z,14.77
2022-12-13T20:30:47.077Z,15.00
2022-12-13T20:33:14.816Z,13.10
2022-12-13T20:36:15.183Z,15.67
2022-12-13T20:38:39.995Z,14.50
2022-12-13T20:41:12.903Z,12.40
2022-12-13T20:43:42.481Z,14.87
2022-12-13T20:46:13.979Z,12.80
2022-12-13T20:48:42.817Z,13.07
2022-12-13T20:51:12.739Z,12.27
2022-12-13T20:53:42.384Z,14.10
2022-12-13T20:56:13.373Z,13.07
2022-12-13T20:58:41.817Z,12.90
2022-12-13T21:01:13.224Z,12.97
2022-12-13T21:03:40.023Z,11.30
2022-12-13T21:06:06.758Z,14.23
2022-12-13T21:08:51.523Z,12.53
2022-12-13T21:11:24.730Z,14.07
2022-12-13T21:13:55.250Z,13.80
2022-12-13T21:16:27.620Z,12.27
2022-12-13T21:18:56.885Z,13.07
2022-12-13T21:21:25.309Z,14.37
2022-12-13T21:23:56.590Z,14.77
2022-12-13T21:26:26.730Z,11.80
2022-12-13T21:28:59.140Z,13.90
2022-12-13T21:31:30.283Z,13.07
2022-12-13T21:34:02.235Z,13.53
2022-12-13T21:36:38.114Z,15.00
2022-12-13T21:39:09.100Z,13.83
2022-12-13T21:41:37.691Z,12.77
2022-12-13T21:44:04.825Z,15.73
2022-12-13T21:47:11.400Z,16.23
2022-12-13T21:49:20.424Z,15.70
2022-12-13T21:51:48.775Z,15.97
2022-12-13T21:54:16.550Z,15.37
2022-12-13T21:57:01.655Z,16.20
2022-12-13T21:59:28.999Z,13.13
2022-12-13T22:02:18.224Z,12.70
2022-12-13T22:04:48.262Z,14.13
2022-12-13T22:07:21.368Z,13.63
2022-12-13T22:09:50.977Z,13.13
2022-12-13T22:12:29.265Z,14.23
2022-12-13T22:14:55.960Z,12.33
2022-12-13T22:17:28.296Z,13.37
2022-12-13T22:19:57.962Z,12.70
2022-12-13T22:22:25.136Z,13.57
2022-12-13T22:24:53.756Z,12.93
2022-12-13T22:27:25.427Z,11.40
2022-12-13T22:29:54.234Z,12.17
2022-12-13T22:32:21.408Z,12.40
2022-12-13T22:34:48.659Z,12.97
2022-12-13T22:37:15.510Z,12.23
2022-12-13T22:39:42.249Z,13.63
2022-12-13T22:42:09.072Z,11.97
2022-12-13T22:44:36.041Z,12.50
2022-12-13T22:47:02.786Z,11.70
2022-12-13T22:49:29.692Z,10.77
2022-12-13T22:51:56.377Z,11.67
2022-12-13T22:54:23.538Z,10.93
2022-12-13T22:56:51.315Z,12.43
2022-12-13T22:59:18.215Z,10.10
2022-12-13T23:01:47.037Z,12.13
2022-12-13T23:04:14.923Z,11.93
2022-12-13T23:06:41.973Z,10.27
2022-12-13T23:09:12.022Z,11.60
2022-12-13T23:11:57.964Z,12.23
2022-12-13T23:14:30.823Z,10.23
2022-12-13T23:16:57.960Z,9.77
2022-12-13T23:19:41.533Z,11.50
2022-12-13T23:22:12.245Z,11.73
2022-12-13T23:24:38.983Z,10.40
2022-12-13T23:27:06.164Z,10.23
2022-12-13T23:29:33.058Z,11.23
2022-12-13T23:31:59.729Z,9.23
2022-12-13T23:34:26.607Z,10.03
2022-12-13T23:36:53.315Z,9.40
2022-12-13T23:39:19.959Z,10.23
2022-12-13T23:41:46.746Z,9.80
2022-12-13T23:44:13.879Z,10.00
2022-12-13T23:46:40.583Z,9.53
2022-12-13T23:49:07.750Z,10.10
2022-12-13T23:51:35.204Z,10.93
2022-12-13T23:54:02.418Z,9.00
2022-12-13T23:56:29.492Z,10.53
2022-12-13T23:58:56.427Z,8.87
